sensor_id;sensor_type;location;lat;lon;timestamp;temperature;humidity
71084;DHT22;58741;52.672;13.548;2022-07-23T00:00:28;16.60;78.80
71084;DHT22;58741;52.672;13.548;2022-07-23T00:02:54;16.60;79.20
71084;DHT22;58741;52.672;13.548;2022-07-23T00:05:19;16.60;79.40
71084;DHT22;58741;52.672;13.548;2022-07-23T00:07:45;16.60;79.70
71084;DHT22;58741;52.672;13.548;2022-07-23T00:10:11;16.50;79.50
71084;DHT22;58741;52.672;13.548;2022-07-23T00:12:37;16.60;79.70
71084;DHT22;58741;52.672;13.548;2022-07-23T00:15:04;16.50;79.70
71084;DHT22;58741;52.672;13.548;2022-07-23T00:17:30;16.50;80.60
71084;DHT22;58741;52.672;13.548;2022-07-23T00:19:55;16.50;80.10
71084;DHT22;58741;52.672;13.548;2022-07-23T00:22:21;16.50;79.70
71084;DHT22;58741;52.672;13.548;2022-07-23T00:24:47;16.40;79.70
71084;DHT22;58741;52.672;13.548;2022-07-23T00:27:12;16.40;79.90
71084;DHT22;58741;52.672;13.548;2022-07-23T00:29:38;16.40;79.60
71084;DHT22;58741;52.672;13.548;2022-07-23T00:32:03;16.40;79.50
71084;DHT22;58741;52.672;13.548;2022-07-23T00:34:29;16.30;79.30
71084;DHT22;58741;52.672;13.548;2022-07-23T00:36:55;16.30;79.60
71084;DHT22;58741;52.672;13.548;2022-07-23T00:39:20;16.30;80.10
71084;DHT22;58741;52.672;13.548;2022-07-23T00:41:49;16.30;79.90
71084;DHT22;58741;52.672;13.548;2022-07-23T00:44:20;16.30;80.10
71084;DHT22;58741;52.672;13.548;2022-07-23T00:46:49;16.30;80.60
71084;DHT22;58741;52.672;13.548;2022-07-23T00:49:15;16.20;80.50
71084;DHT22;58741;52.672;13.548;2022-07-23T00:51:41;16.20;80.20
71084;DHT22;58741;52.672;13.548;2022-07-23T00:54:07;16.20;80.50
71084;DHT22;58741;52.672;13.548;2022-07-23T00:56:33;16.20;80.90
71084;DHT22;58741;52.672;13.548;2022-07-23T00:59:00;16.20;80.70
71084;DHT22;58741;52.672;13.548;2022-07-23T01:01:26;16.20;81.00
71084;DHT22;58741;52.672;13.548;2022-07-23T01:03:51;16.20;81.20
71084;DHT22;58741;52.672;13.548;2022-07-23T01:06:17;16.20;80.90
71084;DHT22;58741;52.672;13.548;2022-07-23T01:08:42;16.10;80.60
71084;DHT22;58741;52.672;13.548;2022-07-23T01:11:08;16.10;80.80
71084;DHT22;58741;52.672;13.548;2022-07-23T01:13:34;16.10;80.50
71084;DHT22;58741;52.672;13.548;2022-07-23T01:15:59;16.10;80.70
71084;DHT22;58741;52.672;13.548;2022-07-23T01:18:25;16.10;81.30
71084;DHT22;58741;52.672;13.548;2022-07-23T01:20:50;16.10;81.10
71084;DHT22;58741;52.672;13.548;2022-07-23T01:23:16;16.00;80.80
71084;DHT22;58741;52.672;13.548;2022-07-23T01:25:55;16.00;81.10
71084;DHT22;58741;52.672;13.548;2022-07-23T01:28:21;16.00;80.70
71084;DHT22;58741;52.672;13.548;2022-07-23T01:30:47;16.00;80.60
71084;DHT22;58741;52.672;13.548;2022-07-23T01:33:13;15.90;80.70
71084;DHT22;58741;52.672;13.548;2022-07-23T01:35:38;15.90;81.10
71084;DHT22;58741;52.672;13.548;2022-07-23T01:38:04;15.90;81.30
71084;DHT22;58741;52.672;13.548;2022-07-23T01:40:29;15.90;81.10
71084;DHT22;58741;52.672;13.548;2022-07-23T01:42:55;15.90;81.50
71084;DHT22;58741;52.672;13.548;2022-07-23T01:45:20;15.80;81.70
71084;DHT22;58741;52.672;13.548;2022-07-23T01:47:46;15.80;81.50
71084;DHT22;58741;52.672;13.548;2022-07-23T01:50:12;15.80;81.40
71084;DHT22;58741;52.672;13.548;2022-07-23T01:52:38;15.70;81.00
71084;DHT22;58741;52.672;13.548;2022-07-23T01:55:03;15.70;81.20
71084;DHT22;58741;52.672;13.548;2022-07-23T01:57:31;15.70;81.50
71084;DHT22;58741;52.672;13.548;2022-07-23T01:59:56;15.70;81.50
71084;DHT22;58741;52.672;13.548;2022-07-23T02:02:22;15.60;81.40
71084;DHT22;58741;52.672;13.548;2022-07-23T02:04:48;15.60;81.10
71084;DHT22;58741;52.672;13.548;2022-07-23T02:07:13;15.60;80.90
71084;DHT22;58741;52.672;13.548;2022-07-23T02:09:39;15.60;80.90
71084;DHT22;58741;52.672;13.548;2022-07-23T02:12:04;15.50;81.40
71084;DHT22;58741;52.672;13.548;2022-07-23T02:14:30;15.50;81.30
71084;DHT22;58741;52.672;13.548;2022-07-23T02:16:55;15.50;81.40
71084;DHT22;58741;52.672;13.548;2022-07-23T02:19:21;15.50;82.20
71084;DHT22;58741;52.672;13.548;2022-07-23T02:21:46;15.40;81.60
71084;DHT22;58741;52.672;13.548;2022-07-23T02:24:12;15.40;81.90
71084;DHT22;58741;52.672;13.548;2022-07-23T02:26:38;15.40;82.40
71084;DHT22;58741;52.672;13.548;2022-07-23T02:29:04;15.40;82.90
71084;DHT22;58741;52.672;13.548;2022-07-23T02:31:30;15.40;83.90
71084;DHT22;58741;52.672;13.548;2022-07-23T02:33:56;15.40;83.30
71084;DHT22;58741;52.672;13.548;2022-07-23T02:36:22;15.40;83.00
71084;DHT22;58741;52.672;13.548;2022-07-23T02:38:48;15.40;83.40
71084;DHT22;58741;52.672;13.548;2022-07-23T02:41:13;15.40;83.70
71084;DHT22;58741;52.672;13.548;2022-07-23T02:43:39;15.40;83.40
71084;DHT22;58741;52.672;13.548;2022-07-23T02:46:04;15.40;83.90
71084;DHT22;58741;52.672;13.548;2022-07-23T02:48:30;15.40;83.60
71084;DHT22;58741;52.672;13.548;2022-07-23T02:50:56;15.40;83.70
71084;DHT22;58741;52.672;13.548;2022-07-23T02:53:22;15.40;84.30
71084;DHT22;58741;52.672;13.548;2022-07-23T02:55:48;15.40;84.50
71084;DHT22;58741;52.672;13.548;2022-07-23T02:58:14;15.50;84.30
71084;DHT22;58741;52.672;13.548;2022-07-23T03:00:39;15.40;84.30
71084;DHT22;58741;52.672;13.548;2022-07-23T03:03:05;15.50;84.10
71084;DHT22;58741;52.672;13.548;2022-07-23T03:05:31;15.50;84.50
71084;DHT22;58741;52.672;13.548;2022-07-23T03:07:57;15.50;85.00
71084;DHT22;58741;52.672;13.548;2022-07-23T03:10:22;15.50;84.90
71084;DHT22;58741;52.672;13.548;2022-07-23T03:12:48;15.50;84.60
71084;DHT22;58741;52.672;13.548;2022-07-23T03:15:13;15.50;83.70
71084;DHT22;58741;52.672;13.548;2022-07-23T03:17:39;15.50;84.30
71084;DHT22;58741;52.672;13.548;2022-07-23T03:20:05;15.60;83.80
71084;DHT22;58741;52.672;13.548;2022-07-23T03:22:30;15.50;84.10
71084;DHT22;58741;52.672;13.548;2022-07-23T03:24:56;15.60;84.00
71084;DHT22;58741;52.672;13.548;2022-07-23T03:27:26;15.50;84.00
71084;DHT22;58741;52.672;13.548;2022-07-23T03:29:54;15.50;83.80
71084;DHT22;58741;52.672;13.548;2022-07-23T03:32:21;15.50;84.40
71084;DHT22;58741;52.672;13.548;2022-07-23T03:34:46;15.60;84.30
71084;DHT22;58741;52.672;13.548;2022-07-23T03:37:12;15.60;84.60
71084;DHT22;58741;52.672;13.548;2022-07-23T03:39:38;15.60;85.10
71084;DHT22;58741;52.672;13.548;2022-07-23T03:42:03;15.60;84.60
71084;DHT22;58741;52.672;13.548;2022-07-23T03:44:29;15.60;84.10
71084;DHT22;58741;52.672;13.548;2022-07-23T03:46:54;15.60;84.50
71084;DHT22;58741;52.672;13.548;2022-07-23T03:49:20;15.60;84.60
71084;DHT22;58741;52.672;13.548;2022-07-23T03:51:46;15.60;83.40
71084;DHT22;58741;52.672;13.548;2022-07-23T03:54:11;15.60;84.50
71084;DHT22;58741;52.672;13.548;2022-07-23T03:56:37;15.60;84.20
71084;DHT22;58741;52.672;13.548;2022-07-23T03:59:02;15.60;84.40
71084;DHT22;58741;52.672;13.548;2022-07-23T04:01:28;15.70;83.90
71084;DHT22;58741;52.672;13.548;2022-07-23T04:03:53;15.60;83.50
71084;DHT22;58741;52.672;13.548;2022-07-23T04:06:19;15.70;83.60
71084;DHT22;58741;52.672;13.548;2022-07-23T04:08:44;15.70;83.60
71084;DHT22;58741;52.672;13.548;2022-07-23T04:11:10;15.70;82.90
71084;DHT22;58741;52.672;13.548;2022-07-23T04:13:35;15.70;83.60
71084;DHT22;58741;52.672;13.548;2022-07-23T04:16:02;15.70;83.40
71084;DHT22;58741;52.672;13.548;2022-07-23T04:18:29;15.80;83.00
71084;DHT22;58741;52.672;13.548;2022-07-23T04:20:55;15.80;83.40
71084;DHT22;58741;52.672;13.548;2022-07-23T04:23:20;15.80;83.40
71084;DHT22;58741;52.672;13.548;2022-07-23T04:25:46;15.80;83.10
71084;DHT22;58741;52.672;13.548;2022-07-23T04:28:11;15.90;82.50
71084;DHT22;58741;52.672;13.548;2022-07-23T04:30:37;15.90;82.80
71084;DHT22;58741;52.672;13.548;2022-07-23T04:33:03;15.90;82.50
71084;DHT22;58741;52.672;13.548;2022-07-23T04:35:32;15.90;82.60
71084;DHT22;58741;52.672;13.548;2022-07-23T04:37:57;15.90;82.50
71084;DHT22;58741;52.672;13.548;2022-07-23T04:40:23;15.90;82.10
71084;DHT22;58741;52.672;13.548;2022-07-23T04:42:48;15.90;82.10
71084;DHT22;58741;52.672;13.548;2022-07-23T04:45:14;16.00;82.70
71084;DHT22;58741;52.672;13.548;2022-07-23T04:47:39;16.00;82.70
71084;DHT22;58741;52.672;13.548;2022-07-23T04:50:05;15.90;83.80
71084;DHT22;58741;52.672;13.548;2022-07-23T04:52:31;16.00;84.00
71084;DHT22;58741;52.672;13.548;2022-07-23T04:54:56;16.00;84.50
71084;DHT22;58741;52.672;13.548;2022-07-23T04:57:22;16.00;85.40
71084;DHT22;58741;52.672;13.548;2022-07-23T04:59:47;16.00;85.70
71084;DHT22;58741;52.672;13.548;2022-07-23T05:02:13;15.90;86.70
71084;DHT22;58741;52.672;13.548;2022-07-23T05:04:38;15.90;85.80
71084;DHT22;58741;52.672;13.548;2022-07-23T05:07:04;15.90;86.20
71084;DHT22;58741;52.672;13.548;2022-07-23T05:09:29;15.90;86.10
71084;DHT22;58741;52.672;13.548;2022-07-23T05:11:55;15.90;85.60
71084;DHT22;58741;52.672;13.548;2022-07-23T05:14:20;15.90;86.30
71084;DHT22;58741;52.672;13.548;2022-07-23T05:16:46;15.90;87.30
71084;DHT22;58741;52.672;13.548;2022-07-23T05:19:11;15.80;87.40
71084;DHT22;58741;52.672;13.548;2022-07-23T05:21:37;15.80;86.50
71084;DHT22;58741;52.672;13.548;2022-07-23T05:24:02;15.80;87.50
71084;DHT22;58741;52.672;13.548;2022-07-23T05:26:28;15.80;87.70
71084;DHT22;58741;52.672;13.548;2022-07-23T05:28:53;15.80;87.50
71084;DHT22;58741;52.672;13.548;2022-07-23T05:31:20;15.80;87.50
71084;DHT22;58741;52.672;13.548;2022-07-23T05:33:45;15.70;88.10
71084;DHT22;58741;52.672;13.548;2022-07-23T05:36:11;15.70;88.30
71084;DHT22;58741;52.672;13.548;2022-07-23T05:38:36;15.70;87.60
71084;DHT22;58741;52.672;13.548;2022-07-23T05:41:02;15.70;88.30
71084;DHT22;58741;52.672;13.548;2022-07-23T05:43:28;15.70;88.10
71084;DHT22;58741;52.672;13.548;2022-07-23T05:45:54;15.70;87.70
71084;DHT22;58741;52.672;13.548;2022-07-23T05:48:19;15.70;88.40
71084;DHT22;58741;52.672;13.548;2022-07-23T05:50:46;15.70;88.30
71084;DHT22;58741;52.672;13.548;2022-07-23T05:53:11;15.70;88.10
71084;DHT22;58741;52.672;13.548;2022-07-23T05:55:37;15.70;89.00
71084;DHT22;58741;52.672;13.548;2022-07-23T05:58:03;15.80;89.20
71084;DHT22;58741;52.672;13.548;2022-07-23T06:00:28;15.80;88.20
71084;DHT22;58741;52.672;13.548;2022-07-23T06:02:54;15.70;88.30
71084;DHT22;58741;52.672;13.548;2022-07-23T06:05:20;15.80;90.00
71084;DHT22;58741;52.672;13.548;2022-07-23T06:07:45;15.80;89.40
71084;DHT22;58741;52.672;13.548;2022-07-23T06:10:11;15.80;89.80
71084;DHT22;58741;52.672;13.548;2022-07-23T06:12:37;15.80;89.70
71084;DHT22;58741;52.672;13.548;2022-07-23T06:15:03;15.80;88.30
71084;DHT22;58741;52.672;13.548;2022-07-23T06:17:29;15.80;89.00
71084;DHT22;58741;52.672;13.548;2022-07-23T06:19:54;15.80;88.40
71084;DHT22;58741;52.672;13.548;2022-07-23T06:22:20;15.80;88.80
71084;DHT22;58741;52.672;13.548;2022-07-23T06:24:46;15.80;89.40
71084;DHT22;58741;52.672;13.548;2022-07-23T06:27:11;15.80;89.30
71084;DHT22;58741;52.672;13.548;2022-07-23T06:29:37;15.80;88.80
71084;DHT22;58741;52.672;13.548;2022-07-23T06:32:02;15.80;88.80
71084;DHT22;58741;52.672;13.548;2022-07-23T06:34:28;15.90;89.20
71084;DHT22;58741;52.672;13.548;2022-07-23T06:36:54;15.90;89.30
71084;DHT22;58741;52.672;13.548;2022-07-23T06:39:19;15.90;89.40
71084;DHT22;58741;52.672;13.548;2022-07-23T06:41:45;15.90;90.00
71084;DHT22;58741;52.672;13.548;2022-07-23T06:44:10;15.90;89.70
71084;DHT22;58741;52.672;13.548;2022-07-23T06:46:36;15.90;89.80
71084;DHT22;58741;52.672;13.548;2022-07-23T06:49:01;15.90;90.00
71084;DHT22;58741;52.672;13.548;2022-07-23T06:51:27;15.90;90.00
71084;DHT22;58741;52.672;13.548;2022-07-23T06:53:52;15.90;89.50
71084;DHT22;58741;52.672;13.548;2022-07-23T06:56:18;15.90;89.60
71084;DHT22;58741;52.672;13.548;2022-07-23T06:58:44;15.90;89.50
71084;DHT22;58741;52.672;13.548;2022-07-23T07:01:09;15.90;89.20
71084;DHT22;58741;52.672;13.548;2022-07-23T07:03:35;16.00;89.40
71084;DHT22;58741;52.672;13.548;2022-07-23T07:06:00;16.00;90.00
71084;DHT22;58741;52.672;13.548;2022-07-23T07:08:27;16.00;90.40
71084;DHT22;58741;52.672;13.548;2022-07-23T07:10:53;16.00;90.30
71084;DHT22;58741;52.672;13.548;2022-07-23T07:13:18;16.00;90.30
71084;DHT22;58741;52.672;13.548;2022-07-23T07:15:44;16.10;90.30
71084;DHT22;58741;52.672;13.548;2022-07-23T07:18:09;16.10;90.40
71084;DHT22;58741;52.672;13.548;2022-07-23T07:20:35;16.10;90.40
71084;DHT22;58741;52.672;13.548;2022-07-23T07:23:00;16.10;90.60
71084;DHT22;58741;52.672;13.548;2022-07-23T07:25:26;16.10;90.20
71084;DHT22;58741;52.672;13.548;2022-07-23T07:27:51;16.10;89.50
71084;DHT22;58741;52.672;13.548;2022-07-23T07:30:17;16.10;90.00
71084;DHT22;58741;52.672;13.548;2022-07-23T07:32:42;16.20;90.20
71084;DHT22;58741;52.672;13.548;2022-07-23T07:35:08;16.10;90.50
71084;DHT22;58741;52.672;13.548;2022-07-23T07:37:34;16.10;90.10
71084;DHT22;58741;52.672;13.548;2022-07-23T07:39:59;16.20;90.20
71084;DHT22;58741;52.672;13.548;2022-07-23T07:42:25;16.20;90.30
71084;DHT22;58741;52.672;13.548;2022-07-23T07:44:51;16.20;90.00
71084;DHT22;58741;52.672;13.548;2022-07-23T07:47:16;16.20;89.00
71084;DHT22;58741;52.672;13.548;2022-07-23T07:49:42;16.30;89.50
71084;DHT22;58741;52.672;13.548;2022-07-23T07:52:08;16.30;89.00
71084;DHT22;58741;52.672;13.548;2022-07-23T07:54:34;16.30;90.00
71084;DHT22;58741;52.672;13.548;2022-07-23T07:56:59;16.40;90.30
71084;DHT22;58741;52.672;13.548;2022-07-23T07:59:25;16.40;89.90
71084;DHT22;58741;52.672;13.548;2022-07-23T08:01:50;16.50;90.40
71084;DHT22;58741;52.672;13.548;2022-07-23T08:04:16;16.50;88.80
71084;DHT22;58741;52.672;13.548;2022-07-23T08:06:41;16.50;88.70
71084;DHT22;58741;52.672;13.548;2022-07-23T08:09:07;16.60;88.80
71084;DHT22;58741;52.672;13.548;2022-07-23T08:11:33;16.60;87.70
71084;DHT22;58741;52.672;13.548;2022-07-23T08:13:58;16.60;88.70
71084;DHT22;58741;52.672;13.548;2022-07-23T08:16:24;16.70;89.20
71084;DHT22;58741;52.672;13.548;2022-07-23T08:18:49;16.80;90.00
71084;DHT22;58741;52.672;13.548;2022-07-23T08:21:15;16.90;90.20
71084;DHT22;58741;52.672;13.548;2022-07-23T08:23:40;17.10;89.60
71084;DHT22;58741;52.672;13.548;2022-07-23T08:26:06;17.20;90.00
71084;DHT22;58741;52.672;13.548;2022-07-23T08:28:32;17.30;89.20
71084;DHT22;58741;52.672;13.548;2022-07-23T08:31:00;17.50;90.30
71084;DHT22;58741;52.672;13.548;2022-07-23T08:33:26;17.70;89.50
71084;DHT22;58741;52.672;13.548;2022-07-23T08:35:52;17.90;88.50
71084;DHT22;58741;52.672;13.548;2022-07-23T08:38:20;18.00;87.40
71084;DHT22;58741;52.672;13.548;2022-07-23T08:40:51;18.10;88.40
71084;DHT22;58741;52.672;13.548;2022-07-23T08:43:22;18.30;88.40
71084;DHT22;58741;52.672;13.548;2022-07-23T08:45:50;18.50;88.50
71084;DHT22;58741;52.672;13.548;2022-07-23T08:48:20;18.70;87.40
71084;DHT22;58741;52.672;13.548;2022-07-23T08:50:51;18.90;87.00
71084;DHT22;58741;52.672;13.548;2022-07-23T08:53:18;19.00;85.60
71084;DHT22;58741;52.672;13.548;2022-07-23T08:55:48;19.20;85.50
71084;DHT22;58741;52.672;13.548;2022-07-23T08:58:15;19.40;84.30
71084;DHT22;58741;52.672;13.548;2022-07-23T09:00:42;19.50;82.10
71084;DHT22;58741;52.672;13.548;2022-07-23T09:03:16;19.60;81.40
71084;DHT22;58741;52.672;13.548;2022-07-23T09:05:41;19.70;82.40
71084;DHT22;58741;52.672;13.548;2022-07-23T09:13:39;20.10;79.80
71084;DHT22;58741;52.672;13.548;2022-07-23T09:16:10;20.30;77.50
71084;DHT22;58741;52.672;13.548;2022-07-23T09:18:40;20.40;78.30
71084;DHT22;58741;52.672;13.548;2022-07-23T09:21:21;20.40;78.60
71084;DHT22;58741;52.672;13.548;2022-07-23T09:23:54;20.50;79.60
71084;DHT22;58741;52.672;13.548;2022-07-23T09:26:25;20.60;78.40
71084;DHT22;58741;52.672;13.548;2022-07-23T09:28:54;20.70;78.80
71084;DHT22;58741;52.672;13.548;2022-07-23T09:31:20;20.80;78.60
71084;DHT22;58741;52.672;13.548;2022-07-23T09:33:46;21.00;75.00
71084;DHT22;58741;52.672;13.548;2022-07-23T09:36:11;21.00;75.70
71084;DHT22;58741;52.672;13.548;2022-07-23T09:38:48;21.00;72.60
71084;DHT22;58741;52.672;13.548;2022-07-23T09:41:14;21.00;76.30
71084;DHT22;58741;52.672;13.548;2022-07-23T09:43:39;21.10;75.90
71084;DHT22;58741;52.672;13.548;2022-07-23T09:46:21;21.10;73.90
71084;DHT22;58741;52.672;13.548;2022-07-23T09:48:47;21.10;75.20
71084;DHT22;58741;52.672;13.548;2022-07-23T09:51:13;21.20;73.20
71084;DHT22;58741;52.672;13.548;2022-07-23T09:53:49;21.20;73.50
71084;DHT22;58741;52.672;13.548;2022-07-23T09:56:15;21.30;73.50
71084;DHT22;58741;52.672;13.548;2022-07-23T09:58:43;21.30;73.20
71084;DHT22;58741;52.672;13.548;2022-07-23T10:01:14;21.40;72.80
71084;DHT22;58741;52.672;13.548;2022-07-23T10:03:41;21.50;74.30
71084;DHT22;58741;52.672;13.548;2022-07-23T10:06:09;21.60;73.30
71084;DHT22;58741;52.672;13.548;2022-07-23T10:08:35;21.70;72.90
71084;DHT22;58741;52.672;13.548;2022-07-23T10:11:01;21.80;70.80
71084;DHT22;58741;52.672;13.548;2022-07-23T10:13:27;21.90;71.50
71084;DHT22;58741;52.672;13.548;2022-07-23T10:16:12;22.00;71.00
71084;DHT22;58741;52.672;13.548;2022-07-23T10:18:37;22.10;70.30
71084;DHT22;58741;52.672;13.548;2022-07-23T10:21:06;22.20;70.50
71084;DHT22;58741;52.672;13.548;2022-07-23T10:24:04;22.20;68.50
71084;DHT22;58741;52.672;13.548;2022-07-23T10:26:41;22.30;69.30
71084;DHT22;58741;52.672;13.548;2022-07-23T10:29:20;22.30;69.60
71084;DHT22;58741;52.672;13.548;2022-07-23T10:31:55;22.40;69.50
71084;DHT22;58741;52.672;13.548;2022-07-23T10:34:42;22.40;69.00
71084;DHT22;58741;52.672;13.548;2022-07-23T10:37:17;22.40;68.30
71084;DHT22;58741;52.672;13.548;2022-07-23T10:42:35;22.60;68.50
71084;DHT22;58741;52.672;13.548;2022-07-23T10:45:01;22.60;68.90
71084;DHT22;58741;52.672;13.548;2022-07-23T10:47:30;22.70;69.20
71084;DHT22;58741;52.672;13.548;2022-07-23T10:50:25;22.80;64.90
71084;DHT22;58741;52.672;13.548;2022-07-23T10:53:14;22.90;67.80
71084;DHT22;58741;52.672;13.548;2022-07-23T10:55:47;23.10;68.50
71084;DHT22;58741;52.672;13.548;2022-07-23T10:58:21;23.20;64.90
71084;DHT22;58741;52.672;13.548;2022-07-23T11:00:47;23.30;63.70
71084;DHT22;58741;52.672;13.548;2022-07-23T11:03:30;23.40;66.50
71084;DHT22;58741;52.672;13.548;2022-07-23T11:05:58;23.40;63.80
71084;DHT22;58741;52.672;13.548;2022-07-23T11:08:23;23.40;64.40
71084;DHT22;58741;52.672;13.548;2022-07-23T11:10:52;23.50;65.20
71084;DHT22;58741;52.672;13.548;2022-07-23T11:13:38;23.60;66.00
71084;DHT22;58741;52.672;13.548;2022-07-23T11:16:12;23.70;65.20
71084;DHT22;58741;52.672;13.548;2022-07-23T11:32:02;24.20;62.30
71084;DHT22;58741;52.672;13.548;2022-07-23T11:34:33;24.40;61.90
71084;DHT22;58741;52.672;13.548;2022-07-23T11:36:59;24.50;59.20
71084;DHT22;58741;52.672;13.548;2022-07-23T11:39:27;24.60;58.80
71084;DHT22;58741;52.672;13.548;2022-07-23T11:41:52;24.60;59.20
71084;DHT22;58741;52.672;13.548;2022-07-23T11:44:29;24.70;59.10
71084;DHT22;58741;52.672;13.548;2022-07-23T11:46:59;24.80;58.80
71084;DHT22;58741;52.672;13.548;2022-07-23T11:49:25;24.90;58.70
71084;DHT22;58741;52.672;13.548;2022-07-23T11:52:07;25.00;59.40
71084;DHT22;58741;52.672;13.548;2022-07-23T11:54:35;25.00;55.20
71084;DHT22;58741;52.672;13.548;2022-07-23T11:57:02;25.00;58.10
71084;DHT22;58741;52.672;13.548;2022-07-23T11:59:31;25.00;56.90
71084;DHT22;58741;52.672;13.548;2022-07-23T12:02:02;25.10;57.60
71084;DHT22;58741;52.672;13.548;2022-07-23T12:04:39;25.20;55.80
71084;DHT22;58741;52.672;13.548;2022-07-23T12:07:22;25.30;56.10
71084;DHT22;58741;52.672;13.548;2022-07-23T12:09:47;25.20;55.10
71084;DHT22;58741;52.672;13.548;2022-07-23T12:12:13;25.20;54.40
71084;DHT22;58741;52.672;13.548;2022-07-23T12:14:54;25.10;53.60
71084;DHT22;58741;52.672;13.548;2022-07-23T12:17:21;25.20;58.00
71084;DHT22;58741;52.672;13.548;2022-07-23T12:19:52;25.20;55.40
71084;DHT22;58741;52.672;13.548;2022-07-23T12:22:19;25.30;51.50
71084;DHT22;58741;52.672;13.548;2022-07-23T12:24:59;25.30;56.60
71084;DHT22;58741;52.672;13.548;2022-07-23T12:27:26;25.30;55.90
71084;DHT22;58741;52.672;13.548;2022-07-23T12:29:52;25.40;57.10
71084;DHT22;58741;52.672;13.548;2022-07-23T12:32:23;25.60;55.50
71084;DHT22;58741;52.672;13.548;2022-07-23T12:34:51;25.60;54.70
71084;DHT22;58741;52.672;13.548;2022-07-23T12:37:27;25.60;54.80
71084;DHT22;58741;52.672;13.548;2022-07-23T12:39:53;25.50;54.50
71084;DHT22;58741;52.672;13.548;2022-07-23T12:42:18;25.50;55.60
71084;DHT22;58741;52.672;13.548;2022-07-23T12:45:07;25.50;52.60
71084;DHT22;58741;52.672;13.548;2022-07-23T12:47:58;25.40;54.40
71084;DHT22;58741;52.672;13.548;2022-07-23T12:50:42;25.20;56.00
71084;DHT22;58741;52.672;13.548;2022-07-23T12:53:09;25.20;55.20
71084;DHT22;58741;52.672;13.548;2022-07-23T12:55:36;25.10;55.00
71084;DHT22;58741;52.672;13.548;2022-07-23T13:00:58;25.00;54.00
71084;DHT22;58741;52.672;13.548;2022-07-23T13:03:38;24.90;56.10
71084;DHT22;58741;52.672;13.548;2022-07-23T13:06:07;24.80;55.40
71084;DHT22;58741;52.672;13.548;2022-07-23T13:08:34;24.80;55.70
71084;DHT22;58741;52.672;13.548;2022-07-23T13:11:00;24.70;57.60
71084;DHT22;58741;52.672;13.548;2022-07-23T13:13:28;24.80;58.80
71084;DHT22;58741;52.672;13.548;2022-07-23T13:15:54;24.90;57.00
71084;DHT22;58741;52.672;13.548;2022-07-23T13:18:21;25.10;57.10
71084;DHT22;58741;52.672;13.548;2022-07-23T13:20:47;25.20;56.80
71084;DHT22;58741;52.672;13.548;2022-07-23T13:23:13;25.20;56.80
71084;DHT22;58741;52.672;13.548;2022-07-23T13:25:39;25.20;56.50
71084;DHT22;58741;52.672;13.548;2022-07-23T13:28:05;25.30;56.90
71084;DHT22;58741;52.672;13.548;2022-07-23T13:30:30;25.40;55.00
71084;DHT22;58741;52.672;13.548;2022-07-23T13:32:56;25.60;55.00
71084;DHT22;58741;52.672;13.548;2022-07-23T13:35:22;25.60;54.30
71084;DHT22;58741;52.672;13.548;2022-07-23T13:37:47;25.70;51.80
71084;DHT22;58741;52.672;13.548;2022-07-23T13:40:13;25.80;51.90
71084;DHT22;58741;52.672;13.548;2022-07-23T13:42:39;25.90;55.80
71084;DHT22;58741;52.672;13.548;2022-07-23T13:45:06;26.00;53.50
71084;DHT22;58741;52.672;13.548;2022-07-23T13:47:31;26.00;53.70
71084;DHT22;58741;52.672;13.548;2022-07-23T13:49:57;25.90;52.50
71084;DHT22;58741;52.672;13.548;2022-07-23T13:52:23;25.80;53.30
71084;DHT22;58741;52.672;13.548;2022-07-23T13:54:49;25.80;54.70
71084;DHT22;58741;52.672;13.548;2022-07-23T13:57:15;25.80;54.70
71084;DHT22;58741;52.672;13.548;2022-07-23T13:59:40;25.80;54.60
71084;DHT22;58741;52.672;13.548;2022-07-23T14:02:06;26.00;52.50
71084;DHT22;58741;52.672;13.548;2022-07-23T14:04:33;25.90;50.20
71084;DHT22;58741;52.672;13.548;2022-07-23T14:06:58;25.80;49.60
71084;DHT22;58741;52.672;13.548;2022-07-23T14:09:24;25.80;51.00
71084;DHT22;58741;52.672;13.548;2022-07-23T14:11:50;25.80;52.20
71084;DHT22;58741;52.672;13.548;2022-07-23T14:14:17;25.80;51.00
71084;DHT22;58741;52.672;13.548;2022-07-23T14:16:43;25.80;50.70
71084;DHT22;58741;52.672;13.548;2022-07-23T14:19:09;25.70;50.30
71084;DHT22;58741;52.672;13.548;2022-07-23T14:21:35;25.60;50.50
71084;DHT22;58741;52.672;13.548;2022-07-23T14:24:01;25.50;51.30
71084;DHT22;58741;52.672;13.548;2022-07-23T14:26:27;25.40;51.20
71084;DHT22;58741;52.672;13.548;2022-07-23T14:28:52;25.30;51.60
71084;DHT22;58741;52.672;13.548;2022-07-23T14:31:18;25.30;50.80
71084;DHT22;58741;52.672;13.548;2022-07-23T14:33:43;25.20;53.00
71084;DHT22;58741;52.672;13.548;2022-07-23T14:36:09;25.20;51.80
71084;DHT22;58741;52.672;13.548;2022-07-23T14:38:34;25.20;50.90
71084;DHT22;58741;52.672;13.548;2022-07-23T14:41:01;25.30;52.60
71084;DHT22;58741;52.672;13.548;2022-07-23T14:43:27;25.30;53.90
71084;DHT22;58741;52.672;13.548;2022-07-23T14:45:52;25.50;53.30
71084;DHT22;58741;52.672;13.548;2022-07-23T14:48:18;25.70;51.40
71084;DHT22;58741;52.672;13.548;2022-07-23T14:50:43;25.70;50.10
71084;DHT22;58741;52.672;13.548;2022-07-23T14:53:09;25.70;47.60
71084;DHT22;58741;52.672;13.548;2022-07-23T14:55:34;25.50;50.70
71084;DHT22;58741;52.672;13.548;2022-07-23T14:58:00;25.40;50.70
71084;DHT22;58741;52.672;13.548;2022-07-23T15:00:26;25.30;50.30
71084;DHT22;58741;52.672;13.548;2022-07-23T15:02:52;25.20;50.90
71084;DHT22;58741;52.672;13.548;2022-07-23T15:05:18;25.20;52.80
71084;DHT22;58741;52.672;13.548;2022-07-23T15:07:44;25.30;53.10
71084;DHT22;58741;52.672;13.548;2022-07-23T15:10:09;25.50;52.90
71084;DHT22;58741;52.672;13.548;2022-07-23T15:12:35;25.60;49.50
71084;DHT22;58741;52.672;13.548;2022-07-23T15:15:00;25.70;49.00
71084;DHT22;58741;52.672;13.548;2022-07-23T15:17:26;25.70;48.20
71084;DHT22;58741;52.672;13.548;2022-07-23T15:19:51;25.70;49.60
71084;DHT22;58741;52.672;13.548;2022-07-23T15:22:17;25.80;49.30
71084;DHT22;58741;52.672;13.548;2022-07-23T15:24:43;25.70;49.20
71084;DHT22;58741;52.672;13.548;2022-07-23T15:27:08;25.60;48.00
71084;DHT22;58741;52.672;13.548;2022-07-23T15:29:34;25.60;50.60
71084;DHT22;58741;52.672;13.548;2022-07-23T15:32:00;25.60;51.00
71084;DHT22;58741;52.672;13.548;2022-07-23T15:34:26;25.60;49.90
71084;DHT22;58741;52.672;13.548;2022-07-23T15:36:51;25.60;50.60
71084;DHT22;58741;52.672;13.548;2022-07-23T15:39:17;25.70;49.70